• Join FlightAware (Why Join?)
  • Login
  • US Flag 
01:01PM EST


 

Airport Tracker/Info


-or-


 

Live Flight TrackerFlight Track Log ✈ NKS647 ✈ 02-May-2014 ✈ KIAG - KFLL

Flight Track Log - Related Links

Times and Time Zones

All times are in EDT time to prevent confusion due to time zone crossing. See the NKS647 flight status page for this flight to view local times or setup timezone preferences in your user account.

Time Position Orientation Groundspeed Altitude Reporting Facility
EDT Latitude Longitude Course Direction KTS MPH feet Rate Location/Type
02:33AM 43.1096 -78.9710 270° West 162 186 1,600  Level FlightAware ADS-B (CYYZ)
02:33AM 43.1082 -78.9814 252° West 156 180 2,300 3,600 Climbing FlightAware ADS-B (CYYZ)
02:33AM 43.1066 -78.9855 243° Southwest 159 183 2,500 2,160 Climbing FlightAware ADS-B (CYYZ)
02:33AM 43.1037 -78.9902 225° Southwest 164 189 2,700 2,160 Climbing FlightAware ADS-B (CYYZ)
02:33AM 43.1006 -78.9932 214° Southwest 167 192 2,900 1,980 Climbing FlightAware ADS-B (CYYZ)
02:34AM 43.0975 -78.9951 205° Southwest 173 199 3,000 1,980 Climbing FlightAware ADS-B (CYYZ)
02:34AM 43.0932 -78.9966 193° South 182 209 3,200 1,800 Climbing FlightAware ADS-B (CYYZ)
02:34AM 43.0891 -78.9973 185° South 190 219 3,300 1,080 Climbing FlightAware ADS-B (CYYZ)
02:34AM 43.0838 -78.9970 176° South 199 229 3,400 1,200 Climbing FlightAware ADS-B (CYYZ)
02:34AM 43.0694 -78.9940 170° South 225 259 3,700 1,380 Climbing FlightAware ADS-B (CYYZ)
02:34AM 43.0684 -78.9937 170° South 230 265 3,800 1,980 Climbing FlightAware ADS-B (EPWA / WAW)
02:34AM 43.0540 -78.9900 168° South 248 285 4,200 1,980 Climbing FlightAware ADS-B (CYYZ)
02:34AM 43.0469 -78.9880 168° South 251 289 4,400 2,760 Climbing FlightAware ADS-B (EPWA / WAW)
02:35AM 43.0354 -78.9844 167° South 258 297 4,900 3,480 Climbing FlightAware ADS-B (CYYZ)
02:35AM 43.0276 -78.9820 172° South 259 298 5,400 3,180 Climbing FlightAware ADS-B (EPWA / WAW)
02:35AM 43.0184 -78.9802 174° South 258 297 5,700 3,000 Climbing FlightAware ADS-B (CYYZ)
02:35AM 43.0122 -78.9799 179° South 256 295 6,000 3,600 Climbing FlightAware ADS-B (CYYZ)
02:35AM 42.9949 -78.9808 183° South 251 289 6,900 3,600 Climbing FlightAware ADS-B (CYYZ)
02:35AM 42.9768 -78.9819 183° South 250 288 7,800 3,360 Climbing FlightAware ADS-B (CYYZ)
02:36AM 42.9603 -78.9827 183° South 250 288 8,600 3,000 Climbing FlightAware ADS-B (CYYZ)
02:36AM 42.9424 -78.9837 183° South 255 293 9,300 2,400 Climbing FlightAware ADS-B (CYYZ)
02:36AM 42.9249 -78.9847 183° South 264 304 9,800 2,040 Climbing FlightAware ADS-B (CYYZ)
02:37AM 42.8855 -78.9867 183° South 285 328 10,900 1,500 Climbing FlightAware ADS-B (CYYZ)
02:37AM 42.8450 -78.9889 183° South 317 365 11,300 900 Climbing FlightAware ADS-B (CYYZ)
02:37AM 42.8287 -78.9897 182° South 328 377 11,500 1,980 Climbing FlightAware ADS-B (MDST / STI)
02:38AM 42.7988 -78.9911 182° South 336 387 12,300 3,000 Climbing FlightAware ADS-B (CYYZ)
02:38AM 42.7514 -78.9929 182° South 324 373 14,100 3,000 Climbing FlightAware ADS-B (CYYZ)
02:39AM 42.7076 -78.9948 183° South 329 379 15,300 2,100 Climbing FlightAware ADS-B (CYYZ)
02:39AM 42.6606 -78.9971 183° South 341 392 16,200 1,980 Climbing FlightAware ADS-B (CYYZ)
02:40AM 42.6142 -78.9993 182° South 345 397 17,300 2,280 Climbing FlightAware ADS-B (CYYZ)
02:40AM 42.5667 -79.0013 182° South 344 396 18,500 2,040 Climbing FlightAware ADS-B (CYYZ)
02:41AM 42.5164 -79.0038 182° South 355 409 19,400 1,740 Climbing FlightAware ADS-B (CYYZ)
02:41AM 42.4664 -79.0060 182° South 361 415 20,300 1,800 Climbing FlightAware ADS-B (CYYZ)
02:42AM 42.4161 -79.0082 182° South 366 421 21,200 1,860 Climbing FlightAware ADS-B (CYYZ)
02:42AM 42.3659 -79.0103 182° South 363 418 22,200 1,680 Climbing FlightAware ADS-B (CYYZ)
02:43AM 42.3159 -79.0125 182° South 369 425 22,900 1,380 Climbing FlightAware ADS-B (CYYZ)
02:43AM 42.2657 -79.0149 182° South 375 432 23,600 1,260 Climbing FlightAware ADS-B (CYYZ)
02:44AM 42.2116 -79.0173 182° South 382 440 24,200 1,260 Climbing FlightAware ADS-B (CYYZ)
02:44AM 42.2261 -79.0167 182° South 380 437 24,400 1,200 Climbing FlightAware ADS-B (EPWA / WAW)
02:44AM 42.1582 -79.0197 182° South 390 449 24,800 1,320 Climbing FlightAware ADS-B (CYYZ)
02:44AM 42.1543 -79.0199 182° South 394 453 25,200 1,200 Climbing FlightAware ADS-B (EPWA / WAW)
02:45AM 42.1021 -79.0222 182° South 396 456 25,400 1,020 Climbing FlightAware ADS-B (CYYZ)
02:45AM 42.0525 -79.0243 182° South 401 461 26,000 1,200 Climbing FlightAware ADS-B (EPWA / WAW)
02:45AM 42.0508 -79.0244 182° South 402 463 26,000 1,260 Level FlightAware ADS-B (CYYZ)
02:46AM 41.9911 -79.0270 182° South 404 465 26,700 1,500 Climbing FlightAware ADS-B (CYYZ)
02:46AM 41.9816 -79.0274 182° South 404 465 26,900 1,380 Climbing FlightAware ADS-B (EPWA / WAW)
02:46AM 41.9359 -79.0294 182° South 406 467 27,400 1,020 Climbing FlightAware ADS-B (CYYZ)
02:46AM 41.9111 -79.0305 182° South 408 470 27,600 1,200 Climbing FlightAware ADS-B (EPWA / WAW)
02:47AM 41.8783 -79.0320 182° South 408 470 28,000 1,620 Climbing FlightAware ADS-B (CYYZ)
02:47AM 41.8395 -79.0337 182° South 406 467 28,600 1,560 Climbing FlightAware ADS-B (EPWA / WAW)
02:47AM 41.8237 -79.0344 182° South 406 467 28,800 1,380 Climbing FlightAware ADS-B (CYYZ)
02:48AM 41.7666 -79.0368 182° South 402 463 29,500 1,200 Climbing FlightAware ADS-B (CYYZ)
02:48AM 41.7107 -79.0393 182° South 404 465 30,000 1,200 Climbing FlightAware ADS-B (CYYZ)
02:48AM 41.7374 -79.0381 182° South 405 466 30,200 1,800 Climbing FlightAware ADS-B (EPWA / WAW)
02:49AM 41.6556 -79.0415 182° South 397 457 30,900 1,500 Climbing FlightAware ADS-B (CYYZ)
02:49AM 41.6448 -79.0419 182° South 397 457 31,000 1,260 Climbing FlightAware ADS-B (EPWA / WAW)
02:49AM 41.5983 -79.0440 182° South 393 452 31,600 1,200 Climbing FlightAware ADS-B (CYYZ)
02:50AM 41.5450 -79.0463 183° South 394 453 32,100 960 Climbing FlightAware ADS-B (CYYZ)
02:50AM 41.4889 -79.0489 183° South 395 455 32,600 840 Climbing FlightAware ADS-B (CYYZ)
02:50AM 41.4591 -79.0502 182° South 397 457 32,800 720 Climbing FlightAware ADS-B (EPWA / WAW)
02:51AM 41.4337 -79.0514 183° South 400 460 33,000 960 Climbing FlightAware ADS-B (CYYZ)
02:51AM 41.3787 -79.0538 182° South 400 460 33,500 1,080 Climbing FlightAware ADS-B (CYYZ)
02:52AM 41.3261 -79.0558 182° South 396 456 34,100 1,140 Climbing FlightAware ADS-B (CYYZ)
02:52AM 41.2778 -79.0579 182° South 394 453 34,600 960 Climbing FlightAware ADS-B (EPWA / WAW)
02:52AM 41.2705 -79.0583 183° South 395 455 34,600 540 Level FlightAware ADS-B (CYYZ)
02:53AM 41.2137 -79.0607 182° South 400 460 34,900 600 Climbing FlightAware ADS-B (CYYZ)
02:53AM 41.2005 -79.0612 182° South 400 460 35,000 780 Climbing FlightAware ADS-B (EPWA / WAW)
02:53AM 41.1611 -79.0629 182° South 400 460 35,300 780 Climbing FlightAware ADS-B (CYYZ)
02:54AM 41.1046 -79.0653 182° South 401 461 35,700 600 Climbing FlightAware ADS-B (CYYZ)
02:54AM 41.0372 -79.0682 182° South 396 456 36,000 360 Climbing FlightAware ADS-B (CYYZ)
02:54AM 41.0249 -79.0687 182° South 397 457 36,000  Level FlightAware ADS-B (EPWA / WAW)
02:55AM 40.9859 -79.0703 182° South 393 452 36,000  Level FlightAware ADS-B (CYYZ)
02:55AM 40.9294 -79.0730 183° South 397 457 36,000  Level FlightAware ADS-B (CYYZ)
02:56AM 40.8774 -79.0753 182° South 389 448 36,000  Level FlightAware ADS-B (KWWD)
02:56AM 40.8755 -79.0754 182° South 397 457 36,000  Level FlightAware ADS-B (CYYZ)
02:56AM 40.8182 -79.0779 182° South 393 452 36,000  Level FlightAware ADS-B (CYYZ)
02:56AM 40.8132 -79.0781 182° South 393 452 36,000  Level FlightAware ADS-B (EPWA / WAW)
02:57AM 40.7656 -79.0801 182° South 391 450 36,000  Level FlightAware ADS-B (CYYZ)
02:57AM 40.7343 -79.0815 182° South 390 449 36,000  Level FlightAware ADS-B (EPWA / WAW)
02:57AM 40.7104 -79.0825 182° South 388 447 36,000  Level FlightAware ADS-B (CYYZ)
02:58AM 40.6724 -79.0841 182° South 387 445 36,000  Level FlightAware ADS-B (KWWD)
02:58AM 40.6565 -79.0847 182° South 386 444 36,000  Level FlightAware ADS-B (CYYZ)
02:58AM 40.6127 -79.0865 182° South 385 443 36,000  Level FlightAware ADS-B (KWWD)
02:58AM 40.6046 -79.0869 182° South 385 443 36,000  Level FlightAware ADS-B (CYYZ)
02:59AM 40.5532 -79.0889 182° South 384 442 36,000 -120 Level FlightAware ADS-B (CYYZ)
02:59AM 40.4957 -79.0912 182° South 383 441 35,900 -120 Descending FlightAware ADS-B (CYYZ)
03:00AM 40.4441 -79.0936 183° South 384 442 35,900 60 Level FlightAware ADS-B (CYYZ)
03:00AM 40.3914 -79.0959 182° South 385 443 36,000 60 Climbing FlightAware ADS-B (CYYZ)
03:01AM 40.2960 -79.1001 182° South 388 447 36,000  Level FlightAware ADS-B (CYYZ)
03:02AM 40.2405 -79.1024 182° South 391 450 36,000  Level FlightAware ADS-B
03:02AM 40.2387 -79.1025 182° South 391 450 36,000  Level FlightAware ADS-B (CYYZ)
03:02AM 40.2348 -79.1026 182° South 392 451 36,000  Level FlightAware ADS-B (CYYZ)
03:02AM 40.1840 -79.1046 182° South 391 450 36,000  Level FlightAware ADS-B
03:03AM 40.1462 -79.1062 182° South 390 449 36,000  Level FlightAware ADS-B
03:04AM 40.0372 -79.1103 182° South 389 448 36,000  Level Cleveland Center
03:05AM 39.9278 -79.1150 182° South 390 449 36,100  Climbing Cleveland Center
03:06AM 39.8203 -79.1197 182° South 389 448 36,000 -60 Descending Cleveland Center
03:07AM 39.7128 -79.1244 182° South 389 448 36,000  Level Cleveland Center
03:08AM 39.6086 -79.1278 181° South 382 440 36,000  Level Cleveland Center
03:09AM 39.5044 -79.1300 181° South 378 435 36,000  Level Cleveland Center
03:10AM 39.3983 -79.1361 183° South 378 435 36,000  Level Cleveland Center
03:11AM 39.2906 -79.1414 182° South 382 440 36,000  Level Cleveland Center
03:12AM 39.1792 -79.1467 182° South 382 440 36,000  Level Cleveland Center
03:13AM 39.0731 -79.1503 182° South 382 440 36,000  Level Cleveland Center
03:14AM 38.9675 -79.1556 182° South 384 442 36,000  Level Cleveland Center
03:15AM 38.8594 -79.1594 182° South 383 441 36,000  Level Cleveland Center
03:16AM 38.7508 -79.1644 182° South 387 445 36,000  Level Cleveland Center
03:17AM 38.6414 -79.1683 182° South 391 450 36,000  Level Cleveland Center
03:18AM 38.5328 -79.1733 182° South 391 450 36,000  Level Cleveland Center
03:22AM 38.0387 -79.1921 182° South 390 449 36,000  Level FlightAware ADS-B (KWWD)
03:24AM 37.8289 -79.2001 182° South 389 448 36,100  Climbing FlightAware ADS-B (KWWD)
03:25AM 37.7586 -79.2028 182° South 386 444 36,100 -120 Level FlightAware ADS-B (KWWD)
03:26AM 37.6542 -79.2068 182° South 385 443 36,000 -60 Descending FlightAware ADS-B (KWWD)
03:27AM 37.5640 -79.2105 182° South 383 441 36,000 -120 Level FlightAware ADS-B (KWWD)
03:27AM 37.5083 -79.2127 182° South 384 442 35,900  Descending FlightAware ADS-B (KWWD)
03:28AM 37.4523 -79.2148 182° South 384 442 36,000  Climbing FlightAware ADS-B (KWWD)
03:29AM 37.3165 -79.2202 182° South 384 442 36,000  Level FlightAware ADS-B (KWWD)
03:29AM 37.2595 -79.2225 182° South 386 444 36,000  Level FlightAware ADS-B (KWWD)
03:30AM 37.2089 -79.2244 182° South 391 450 36,000  Level Washington Center
03:31AM 37.0961 -79.2269 181° South 391 450 36,000  Level Washington Center
03:37AM 36.4389 -79.2537 182° South 393 452 36,000  Level FlightAware ADS-B (KINT)
03:38AM 36.2864 -79.2594 182° South 391 450 36,000  Level FlightAware ADS-B (KINT)
03:40AM 36.1345 -79.2649 182° South 386 444 36,000 -60 Level FlightAware ADS-B (KINT)
03:42AM 35.9367 -79.2727 182° South 388 447 35,900  Descending FlightAware ADS-B (KINT)
03:43AM 35.8313 -79.2766 182° South 389 448 36,000 60 Climbing FlightAware ADS-B (KINT)
03:43AM 35.7598 -79.2792 182° South 389 448 36,000  Level FlightAware ADS-B (KINT)
03:44AM 35.6842 -79.2820 182° South 389 448 36,000  Level FlightAware ADS-B (KINT)
03:45AM 35.6181 -79.2845 182° South 390 449 36,000  Level FlightAware ADS-B (KINT)
03:45AM 35.5386 -79.2875 182° South 391 450 36,000  Level FlightAware ADS-B (KINT)
03:46AM 35.4696 -79.2899 182° South 392 451 36,000  Level FlightAware ADS-B (KINT)
03:47AM 35.3976 -79.2926 182° South 394 453 36,000  Level FlightAware ADS-B (KINT)
03:47AM 35.3435 -79.2946 182° South 394 453 36,000  Level FlightAware ADS-B (KINT)
03:48AM 35.2493 -79.2983 182° South 395 455 36,000  Level FlightAware ADS-B (KINT)
03:49AM 35.1796 -79.3008 182° South 396 456 36,000  Level FlightAware ADS-B (KINT)
03:49AM 35.1168 -79.3031 182° South 396 456 36,000  Level FlightAware ADS-B (KINT)
03:50AM 35.0348 -79.3059 182° South 394 453 36,000  Level FlightAware ADS-B (KINT)
03:51AM 34.9646 -79.3085 182° South 394 453 36,000 -120 Level FlightAware ADS-B (KINT)
03:51AM 34.8873 -79.3112 182° South 395 455 35,900  Descending FlightAware ADS-B (KINT)
03:53AM 34.7481 -79.3162 182° South 396 456 36,000  Climbing FlightAware ADS-B (KINT)
03:54AM 34.6290 -79.3206 182° South 397 457 36,000  Level FlightAware ADS-B (KINT)
03:54AM 34.5595 -79.3231 182° South 397 457 36,000  Level FlightAware ADS-B (KINT)
03:55AM 34.4814 -79.3260 182° South 397 457 36,000  Level FlightAware ADS-B (KINT)
03:56AM 34.4111 -79.3286 182° South 396 456 36,000  Level FlightAware ADS-B (KINT)
03:56AM 34.3358 -79.3313 182° South 396 456 36,000  Level FlightAware ADS-B (KINT)
03:57AM 34.2605 -79.3340 182° South 396 456 36,000  Level FlightAware ADS-B (KINT)
03:58AM 34.1899 -79.3364 182° South 397 457 36,000  Level FlightAware ADS-B (KINT)
04:01AM 33.8743 -79.3477 182° South 399 459 36,000 -60 Level FlightAware ADS-B (KINT)
04:01AM 33.7950 -79.3539 182° South 404 465 35,900 -120 Descending Jacksonville Center
04:02AM 33.6886 -79.3533 180° South 397 457 35,900  Level Jacksonville Center
04:03AM 33.5783 -79.3575 182° South 397 457 35,900  Level Jacksonville Center
04:04AM 33.4678 -79.3619 182° South 397 457 35,900  Level Jacksonville Center
04:05AM 33.3594 -79.3664 182° South 402 463 35,900  Level Jacksonville Center
04:06AM 33.2467 -79.3683 181° South 402 463 35,900  Level Jacksonville Center
04:07AM 33.1383 -79.3700 181° South 402 463 35,900  Level Jacksonville Center
04:08AM 33.0403 -79.3739 182° South 402 463 35,900  Level Jacksonville Center
04:09AM 32.9278 -79.3808 183° South 402 463 35,900  Level Jacksonville Center
04:10AM 32.8194 -79.3850 182° South 402 463 35,900  Level Jacksonville Center
04:11AM 32.7089 -79.3894 182° South 402 463 35,900  Level Jacksonville Center
04:12AM 32.5983 -79.3911 181° South 402 463 35,900  Level Jacksonville Center
04:13AM 32.4858 -79.3981 183° South 402 463 35,900  Level Jacksonville Center
04:14AM 32.3772 -79.3997 181° South 402 463 35,900  Level Jacksonville Center
04:15AM 32.2647 -79.4039 182° South 402 463 35,900  Level Jacksonville Center
04:16AM 32.1519 -79.4083 182° South 402 463 35,900  Level Jacksonville Center
04:17AM 32.0375 -79.4150 183° South 402 463 36,000  Climbing Jacksonville Center
04:18AM 31.9247 -79.4169 181° South 402 463 36,000 -60 Level Jacksonville Center
04:19AM 31.8142 -79.4211 182° South 402 463 35,900 -60 Descending Jacksonville Center
04:20AM 31.7017 -79.4253 182° South 402 463 35,900  Level Jacksonville Center
04:21AM 31.5911 -79.4269 181° South 407 468 35,900 300 Level Jacksonville Center
04:22AM 31.4764 -79.4361 184° South 407 468 36,600 900 Climbing Jacksonville Center
04:23AM 31.3658 -79.4353 180° South 402 463 37,800 600 Climbing Jacksonville Center
04:24AM 31.2550 -79.4369 181° South 402 463 37,900  Climbing Jacksonville Center
04:25AM 31.1467 -79.4433 183° South 402 463 37,900  Level Jacksonville Center
04:27AM 30.9214 -79.4508 182° South 406 467 37,900  Level Miami Center
04:28AM 30.8131 -79.4531 181° South 406 467 37,900  Level Miami Center
04:29AM 30.7025 -79.4575 182° South 406 467 37,900  Level Miami Center
04:30AM 30.5817 -79.4667 184° South 401 461 37,900 -300 Level Miami Center
04:37AM 29.8491 -79.5330 185° South 402 463 36,000 -300 Descending FlightAware ADS-B (KMCO)
04:37AM 29.7854 -79.5386 185° South 404 465 36,000 -480 Level FlightAware ADS-B (KMCO)
04:39AM 29.6284 -79.5526 185° South 407 468 35,100 -840 Descending FlightAware ADS-B (KMCO)
04:40AM 29.5132 -79.5630 185° South 414 476 34,100 -1,020 Descending FlightAware ADS-B (KMCO)
04:43AM 29.1039 -79.6479 196° South 419 482 30,600 -780 Descending FlightAware ADS-B (KMCO)
04:45AM 28.8947 -79.7169 195° South 423 487 30,000 -300 Descending FlightAware ADS-B (KMCO)
04:46AM 28.8367 -79.7341 195° South 423 487 30,000  Level FlightAware ADS-B (KMCO)
04:46AM 28.7772 -79.7513 194° South 416 479 30,000  Level FlightAware ADS-B (KMCO)
04:47AM 28.6960 -79.7742 194° South 415 478 30,000  Level FlightAware ADS-B (KMCO)
04:48AM 28.6118 -79.7968 193° South 422 486 30,000  Level FlightAware ADS-B (KMCO)
04:48AM 28.5307 -79.8206 197° South 426 490 30,000  Level FlightAware ADS-B (KMCO)
04:49AM 28.4547 -79.8470 197° South 410 472 30,000  Level FlightAware ADS-B (KMCO)
04:50AM 28.3773 -79.8730 197° South 412 474 30,000  Level FlightAware ADS-B (KMCO)
04:50AM 28.3082 -79.9001 199° South 412 474 30,000  Level FlightAware ADS-B (KMCO)
04:51AM 28.2377 -79.9277 199° South 414 476 30,000  Level FlightAware ADS-B (KMCO)
04:52AM 28.1675 -79.9553 199° South 414 476 30,000  Level FlightAware ADS-B (KMCO)
04:52AM 28.0961 -79.9827 199° South 424 488 30,000  Level FlightAware ADS-B (KMCO)
04:53AM 28.0152 -80.0125 192° South 426 490 30,000  Level FlightAware ADS-B (KMCO)
04:53AM 27.9739 -80.0156 178° South 435 501 30,000 -300 Level FlightAware ADS-B (KMCO)
04:54AM 27.8944 -80.0053 173° South 429 494 29,700 -720 Descending FlightAware ADS-B (KMCO)
04:55AM 27.8161 -79.9955 174° South 410 472 29,100 -1,020 Descending FlightAware ADS-B (KMCO)
04:55AM 27.7395 -79.9863 174° South 410 472 28,400 -1,020 Descending FlightAware ADS-B (KMCO)
04:56AM 27.6646 -79.9771 174° South 413 475 27,800 -1,020 Descending FlightAware ADS-B (KMCO)
04:57AM 27.5889 -79.9678 174° South 412 474 27,100 -1,320 Descending FlightAware ADS-B (KMCO)
04:57AM 27.5133 -79.9585 174° South 404 465 26,100 -1,740 Descending FlightAware ADS-B (KMCO)
04:58AM 27.4076 -79.9456 174° South 399 459 24,300 -1,920 Descending FlightAware ADS-B (KMCO)
04:59AM 27.3347 -79.9367 174° South 396 456 23,000 -1,920 Descending FlightAware ADS-B (KMCO)
05:00AM 27.2308 -79.9240 174° South 391 450 21,300 -2,280 Descending FlightAware ADS-B (KMCO)
05:01AM 27.0672 -79.9042 174° South 414 476 17,500 -2,760 Descending FlightAware ADS-B (KMCO)
05:03AM 26.9573 -79.8907 174° South 405 466 14,400 -2,760 Descending FlightAware ADS-B (RJTF)
05:03AM 26.8742 -79.8817 174° South 408 470 12,700 -2,040 Descending Miami Center
05:04AM 26.7722 -79.8675 173° South 398 458 11,000 -1,500 Descending Miami Center
05:05AM 26.6969 -79.8611 176° South 336 387 9,800 -1,320 Descending Miami Center
05:06AM 26.6117 -79.8494 173° South 291 335 8,400 -1,260 Descending Miami Center
05:07AM 26.5783 -79.8486 179° South 274 315 8,000 -540 Descending Miami Center
05:07AM 26.5408 -79.8408 169° South 285 328 7,900  Descending Miami Center
05:08AM 26.4928 -79.8372 176° South 284 327 8,000 60 Climbing Miami Center
05:08AM 26.4553 -79.8317 172° South 280 322 8,000  Level Miami Center
05:09AM 26.4197 -79.8422 195° South 279 321 8,000 -300 Level Miami Center
05:09AM 26.3922 -79.8533 200° South 273 314 7,700 -840 Descending Miami Center
05:10AM 26.3539 -79.8894 220° Southwest 276 318 7,200 -1,080 Descending Miami Center
05:10AM 26.3322 -79.9211 233° Southwest 282 325 6,700 -1,200 Descending Miami Center
05:11AM 26.3147 -79.9603 244° Southwest 276 318 6,000 -840 Descending Miami Center
05:11AM 26.3017 -79.9875 242° Southwest 282 325 5,900  Descending Miami Center
05:12AM 26.2775 -80.0403 243° Southwest 283 326 6,000 -540 Climbing Miami Center
05:12AM 26.2581 -80.0722 236° Southwest 282 325 5,400 -1,380 Descending Miami Center
05:13AM 26.2383 -80.1133 242° Southwest 278 320 4,600 -1,320 Descending Miami Center
05:13AM 26.2272 -80.1408 246° West 282 325 4,100 -660 Descending Miami Center
05:14AM 26.2011 -80.1889 239° Southwest 276 318 4,000 -240 Descending Miami Center
05:14AM 26.1900 -80.2186 247° West 282 325 3,900 -120 Descending Miami Center
05:15AM 26.1661 -80.2594 237° Southwest 232 267 3,900 -240 Level Miami Center
05:15AM 26.1531 -80.2778 232° Southwest 266 306 3,700 -600 Descending Miami Center
05:16AM 26.1214 -80.2953 206° Southwest 170 196 3,300 -1,200 Descending Miami Center
05:17AM 26.0778 -80.2869 170° South 163 188 1,900 -1,140 Descending Miami Center
05:18AM 26.0747 -80.2361 94° East 162 186 1,100 -720 Descending Miami Center
05:19AM 26.0736 -80.1897 92° East 137 158 400 -660 Descending Miami Center
05:21AM 26.0667 -80.1500 103° East  Level FlightAware Approximate
05:28AM 26.0726 -80.1527 103° East  Level Estimated